createdAt,value
2023-03-24T00:01:31.200Z,39.13
2023-03-24T00:04:18.883Z,39.03
2023-03-24T00:07:05.962Z,39.03
2023-03-24T00:09:54.203Z,39.17
2023-03-24T00:12:42.878Z,39.07
2023-03-24T00:15:30.624Z,39.21
2023-03-24T00:18:18.636Z,39.13
2023-03-24T00:21:07.807Z,39.35
2023-03-24T00:23:58.540Z,39.30
2023-03-24T00:26:46.822Z,39.32
2023-03-24T00:29:36.331Z,39.32
2023-03-24T00:32:23.757Z,39.19
2023-03-24T00:35:12.924Z,39.35
2023-03-24T00:38:00.610Z,39.29
2023-03-24T00:40:49.009Z,39.27
2023-03-24T00:43:36.323Z,39.34
2023-03-24T00:46:29.971Z,39.22
2023-03-24T00:49:18.342Z,39.29
2023-03-24T00:52:10.102Z,39.35
2023-03-24T00:54:58.412Z,39.39
2023-03-24T00:57:50.008Z,39.35
2023-03-24T01:00:42.587Z,39.31
2023-03-24T01:03:30.007Z,39.33
2023-03-24T01:06:18.666Z,39.32
2023-03-24T01:09:07.033Z,39.29
2023-03-24T01:11:53.814Z,39.39
2023-03-24T01:14:41.347Z,39.31
2023-03-24T01:17:29.834Z,39.30
2023-03-24T01:20:16.914Z,39.37
2023-03-24T01:23:07.916Z,39.40
2023-03-24T01:25:55.356Z,39.39
2023-03-24T01:28:43.926Z,39.33
2023-03-24T01:31:30.856Z,39.41
2023-03-24T01:34:18.329Z,39.39
2023-03-24T01:37:06.165Z,39.43
2023-03-24T01:39:53.311Z,39.49
2023-03-24T01:42:40.714Z,39.51
2023-03-24T01:45:39.792Z,39.38
2023-03-24T01:48:45.880Z,39.46
2023-03-24T01:51:40.377Z,39.45
2023-03-24T01:54:34.064Z,39.56
2023-03-24T01:57:44.597Z,39.43
2023-03-24T02:00:31.938Z,39.50
2023-03-24T02:03:38.944Z,39.55
2023-03-24T02:06:27.290Z,39.60
2023-03-24T02:09:15.592Z,39.58
2023-03-24T02:12:03.240Z,39.54
2023-03-24T02:14:52.080Z,39.54
2023-03-24T02:17:57.284Z,39.60
2023-03-24T02:21:12.836Z,39.48
2023-03-24T02:24:21.570Z,39.50
2023-03-24T02:27:31.004Z,39.60
2023-03-24T02:30:26.829Z,39.44
2023-03-24T02:33:52.227Z,39.45
2023-03-24T02:36:58.619Z,39.53
2023-03-24T02:40:15.739Z,39.53
2023-03-24T02:43:18.611Z,39.54
2023-03-24T02:46:31.019Z,39.57
2023-03-24T02:49:50.905Z,39.49
2023-03-24T02:52:49.092Z,39.47
2023-03-24T02:55:45.455Z,39.52
2023-03-24T02:58:45.141Z,39.49
2023-03-24T03:01:35.974Z,39.47
2023-03-24T03:04:57.022Z,39.54
2023-03-24T03:07:49.399Z,39.58
2023-03-24T03:10:41.115Z,39.58
2023-03-24T03:13:38.790Z,39.60
2023-03-24T03:16:38.498Z,39.58
2023-03-24T03:19:42.573Z,39.63
2023-03-24T03:22:38.761Z,39.55
2023-03-24T03:25:31.978Z,39.49
2023-03-24T03:28:24.039Z,39.59
2023-03-24T03:31:16.453Z,39.59
2023-03-24T03:34:18.864Z,39.68
2023-03-24T03:37:19.510Z,39.61
2023-03-24T03:40:15.126Z,39.57
2023-03-24T03:43:05.843Z,39.64
2023-03-24T03:45:53.673Z,39.66
2023-03-24T03:48:44.469Z,39.62
2023-03-24T03:51:33.328Z,39.58
2023-03-24T03:54:21.473Z,39.67
2023-03-24T03:57:09.225Z,39.58
2023-03-24T04:00:16.107Z,39.59
2023-03-24T04:03:25.429Z,39.59
2023-03-24T04:06:28.204Z,39.60
2023-03-24T04:09:39.551Z,39.51
2023-03-24T04:12:49.129Z,39.53
2023-03-24T04:16:34.278Z,39.55
2023-03-24T04:19:55.859Z,39.58
2023-03-24T04:23:14.842Z,39.56
2023-03-24T04:26:26.811Z,39.57
2023-03-24T04:29:26.110Z,39.59
2023-03-24T04:32:33.845Z,39.60
2023-03-24T04:35:34.501Z,39.62
2023-03-24T04:38:36.328Z,39.56
2023-03-24T04:41:45.577Z,39.58
2023-03-24T04:44:41.800Z,39.62
2023-03-24T04:47:57.257Z,39.55
2023-03-24T04:50:57.839Z,39.61
2023-03-24T04:53:45.734Z,39.63
2023-03-24T04:56:47.943Z,39.65
2023-03-24T04:59:43.282Z,39.61
2023-03-24T05:02:30.878Z,39.64
2023-03-24T05:05:23.494Z,39.57
2023-03-24T05:08:11.220Z,39.62
2023-03-24T05:10:58.642Z,39.56
2023-03-24T05:13:47.459Z,39.66
2023-03-24T05:16:35.738Z,39.63
2023-03-24T05:19:23.072Z,39.60
2023-03-24T05:22:10.390Z,39.43
2023-03-24T05:24:57.513Z,39.48
2023-03-24T05:27:44.700Z,39.48
2023-03-24T05:30:38.040Z,39.46
2023-03-24T05:33:34.029Z,39.60
2023-03-24T05:36:21.355Z,39.50
2023-03-24T05:39:14.815Z,39.43
2023-03-24T05:42:10.336Z,39.32
2023-03-24T05:44:57.048Z,39.40
2023-03-24T05:47:48.293Z,39.48
2023-03-24T05:50:35.880Z,39.44
2023-03-24T05:53:23.029Z,39.37
2023-03-24T05:56:28.796Z,39.37
2023-03-24T05:59:24.485Z,39.36
2023-03-24T06:02:24.801Z,39.36
2023-03-24T06:05:17.814Z,39.44
2023-03-24T06:08:05.291Z,39.33
2023-03-24T06:10:54.257Z,39.32
2023-03-24T06:13:41.581Z,39.28
2023-03-24T06:16:29.484Z,39.35
2023-03-24T06:19:22.751Z,39.27
2023-03-24T06:22:20.741Z,39.37
2023-03-24T06:25:09.853Z,39.49
2023-03-24T06:28:04.286Z,39.34
2023-03-24T06:30:52.146Z,39.29
2023-03-24T06:33:46.631Z,39.29
2023-03-24T06:36:36.753Z,39.53
2023-03-24T06:39:25.272Z,39.51
2023-03-24T06:42:13.410Z,39.54
2023-03-24T06:45:00.216Z,39.44
2023-03-24T06:47:47.284Z,39.35
2023-03-24T06:50:35.600Z,39.17
2023-03-24T06:53:27.191Z,39.15
2023-03-24T06:56:17.403Z,39.07
2023-03-24T06:59:07.343Z,38.97
2023-03-24T07:01:54.458Z,38.91
2023-03-24T07:04:46.033Z,38.79
2023-03-24T07:10:48.939Z,38.63
2023-03-24T07:13:36.776Z,38.47
2023-03-24T07:16:24.687Z,38.33
2023-03-24T07:19:32.504Z,38.16
2023-03-24T07:22:38.295Z,38.24
2023-03-24T07:25:44.821Z,38.28
2023-03-24T07:28:44.252Z,38.08
2023-03-24T07:31:32.978Z,38.01
2023-03-24T07:34:21.322Z,37.92
2023-03-24T07:37:07.951Z,37.82
2023-03-24T07:39:54.851Z,37.84
2023-03-24T07:42:43.315Z,37.75
2023-03-24T07:45:49.226Z,37.70
2023-03-24T07:48:36.601Z,37.59
2023-03-24T07:51:23.982Z,37.68
2023-03-24T07:54:19.474Z,37.54
2023-03-24T07:57:10.462Z,37.47
2023-03-24T07:59:58.857Z,37.50
2023-03-24T08:03:02.516Z,37.43
2023-03-24T08:06:10.930Z,37.53
2023-03-24T08:09:04.668Z,37.49
2023-03-24T08:11:51.635Z,37.45
2023-03-24T08:14:38.937Z,37.27
2023-03-24T08:17:25.556Z,37.16
2023-03-24T08:20:14.844Z,36.99
2023-03-24T08:23:04.929Z,36.95
2023-03-24T08:25:51.991Z,36.91
2023-03-24T08:28:39.556Z,36.82
2023-03-24T08:31:35.879Z,36.84
2023-03-24T08:34:22.796Z,36.80
2023-03-24T08:37:09.709Z,36.89
2023-03-24T08:39:59.029Z,36.72
2023-03-24T08:42:52.164Z,36.65
2023-03-24T08:45:39.263Z,36.63
2023-03-24T08:48:27.423Z,36.49
2023-03-24T08:51:16.519Z,36.43
2023-03-24T08:54:04.082Z,36.45
2023-03-24T08:56:51.233Z,36.33
2023-03-24T08:59:38.532Z,36.26
2023-03-24T09:02:25.649Z,36.28
2023-03-24T09:05:15.667Z,36.35
2023-03-24T09:08:03.430Z,36.25
2023-03-24T09:10:51.481Z,36.35
2023-03-24T09:13:38.721Z,36.26
2023-03-24T09:16:25.791Z,36.16
2023-03-24T09:19:12.654Z,36.19
2023-03-24T09:21:59.878Z,36.07
2023-03-24T09:24:49.275Z,36.00
2023-03-24T09:27:36.574Z,36.01
2023-03-24T09:30:24.135Z,36.02
2023-03-24T09:33:12.548Z,36.34
2023-03-24T09:36:01.756Z,36.40
2023-03-24T09:38:48.926Z,36.97
2023-03-24T09:41:35.459Z,37.25
2023-03-24T09:44:31.786Z,37.53
2023-03-24T09:47:34.890Z,37.79
2023-03-24T09:50:26.174Z,37.83
2023-03-24T09:53:40.749Z,37.83
2023-03-24T09:56:29.975Z,37.57
2023-03-24T09:59:20.804Z,37.95
2023-03-24T10:02:17.146Z,37.91
2023-03-24T10:05:13.788Z,38.02
2023-03-24T10:08:16.072Z,37.97
2023-03-24T10:11:13.194Z,37.74
2023-03-24T10:14:25.299Z,37.74
2023-03-24T10:17:24.595Z,37.89
2023-03-24T10:20:34.051Z,37.90
2023-03-24T10:23:34.680Z,37.83
2023-03-24T10:26:27.557Z,37.58
2023-03-24T10:29:34.450Z,37.72
2023-03-24T10:32:27.455Z,37.88
2023-03-24T10:35:25.794Z,37.87
2023-03-24T10:38:20.889Z,37.72
2023-03-24T10:41:12.523Z,37.63
2023-03-24T10:44:01.901Z,37.67
2023-03-24T10:46:53.422Z,37.47
2023-03-24T10:50:00.691Z,37.54
2023-03-24T10:52:58.665Z,37.70
2023-03-24T10:55:46.562Z,37.65
2023-03-24T10:58:40.671Z,37.59
2023-03-24T11:01:32.861Z,37.48
2023-03-24T11:04:20.968Z,37.31
2023-03-24T11:07:21.215Z,37.31
2023-03-24T11:10:11.109Z,37.34
2023-03-24T11:12:58.295Z,37.24
2023-03-24T11:16:16.286Z,37.27
2023-03-24T11:19:21.034Z,37.28
2023-03-24T11:22:11.701Z,37.23
2023-03-24T11:24:58.486Z,37.18
2023-03-24T11:27:45.710Z,37.19
2023-03-24T11:30:46.726Z,37.17
2023-03-24T11:33:37.014Z,37.18
2023-03-24T11:36:40.323Z,37.17
2023-03-24T11:39:34.301Z,37.18
2023-03-24T11:42:27.663Z,37.24
2023-03-24T11:45:30.978Z,37.16
2023-03-24T11:48:28.609Z,37.07
2023-03-24T11:51:28.638Z,36.95
2023-03-24T11:54:18.841Z,36.93
2023-03-24T11:57:12.455Z,37.03
2023-03-24T12:00:29.502Z,36.97
2023-03-24T12:03:28.741Z,37.03
2023-03-24T12:06:34.345Z,37.04
2023-03-24T12:09:45.664Z,36.91
2023-03-24T12:13:13.503Z,36.95
2023-03-24T12:16:47.705Z,36.72
2023-03-24T12:19:40.969Z,36.77
2023-03-24T12:22:33.607Z,36.74
2023-03-24T12:25:26.374Z,36.86
2023-03-24T12:28:34.047Z,36.92
2023-03-24T12:31:30.114Z,36.90
2023-03-24T12:34:54.168Z,36.99
2023-03-24T12:37:59.289Z,37.17
2023-03-24T12:41:01.255Z,37.27
2023-03-24T12:44:01.078Z,37.30
2023-03-24T12:46:57.152Z,37.94
2023-03-24T12:49:53.622Z,38.07
2023-03-24T12:53:07.813Z,38.02
2023-03-24T12:56:06.173Z,37.99
2023-03-24T12:59:04.673Z,37.89
2023-03-24T13:01:55.826Z,37.79
2023-03-24T13:04:44.730Z,37.95
2023-03-24T13:07:44.056Z,37.76
2023-03-24T13:10:40.871Z,37.74
2023-03-24T13:13:45.820Z,37.74
2023-03-24T13:16:38.199Z,37.75
2023-03-24T13:19:26.713Z,37.51
2023-03-24T13:22:18.145Z,37.35
2023-03-24T13:25:28.814Z,37.50
2023-03-24T13:28:25.410Z,37.50
2023-03-24T13:31:14.593Z,37.29
2023-03-24T13:34:03.695Z,37.25
2023-03-24T13:36:56.024Z,37.49
2023-03-24T13:39:46.326Z,37.37
2023-03-24T13:42:37.390Z,37.27
2023-03-24T13:45:33.095Z,37.21
2023-03-24T13:48:25.994Z,37.32
2023-03-24T13:51:22.641Z,37.38
2023-03-24T13:54:23.187Z,37.29
2023-03-24T13:57:20.775Z,37.51
2023-03-24T14:00:14.334Z,37.48
2023-03-24T14:03:31.503Z,37.19
2023-03-24T14:06:52.886Z,37.20
2023-03-24T14:09:58.154Z,37.28
2023-03-24T14:12:58.262Z,37.26
2023-03-24T14:15:58.811Z,37.20
2023-03-24T14:18:48.865Z,37.18
2023-03-24T14:21:37.491Z,37.13
2023-03-24T14:24:28.821Z,37.05
2023-03-24T14:27:37.742Z,37.05
2023-03-24T14:30:38.183Z,37.06
2023-03-24T14:33:26.690Z,36.95
2023-03-24T14:36:20.912Z,36.71
2023-03-24T14:39:20.663Z,36.92
2023-03-24T14:42:32.122Z,36.91
2023-03-24T14:45:43.118Z,36.83
2023-03-24T14:48:38.068Z,36.76
2023-03-24T14:51:25.765Z,36.68
2023-03-24T14:54:18.486Z,36.78
2023-03-24T14:57:08.638Z,36.80
2023-03-24T15:00:08.728Z,36.83
2023-03-24T15:03:01.333Z,36.83
2023-03-24T15:05:48.039Z,36.81
2023-03-24T15:08:37.372Z,36.78
2023-03-24T15:11:31.108Z,36.73
2023-03-24T15:14:27.852Z,36.91
2023-03-24T15:17:25.605Z,36.95
2023-03-24T15:20:33.696Z,36.95
2023-03-24T15:23:26.027Z,36.90
2023-03-24T15:26:14.282Z,37.02
2023-03-24T15:29:11.550Z,36.96
2023-03-24T15:31:58.200Z,36.95
2023-03-24T15:34:55.846Z,37.14
2023-03-24T15:37:48.474Z,37.25
2023-03-24T15:40:37.713Z,37.56
2023-03-24T15:43:25.887Z,37.64
2023-03-24T15:46:29.285Z,37.71
2023-03-24T15:49:30.530Z,37.66
2023-03-24T15:52:34.720Z,37.59
2023-03-24T15:55:36.834Z,37.63
2023-03-24T15:58:29.257Z,37.58
2023-03-24T16:01:21.202Z,37.57
2023-03-24T16:04:14.655Z,37.69
2023-03-24T16:07:01.262Z,37.61
2023-03-24T16:09:58.312Z,37.63
2023-03-24T16:12:45.547Z,37.55
2023-03-24T16:15:32.862Z,37.41
2023-03-24T16:18:25.179Z,37.53
2023-03-24T16:21:16.041Z,37.66
2023-03-24T16:24:03.113Z,37.46
2023-03-24T16:26:50.480Z,37.45
2023-03-24T16:29:38.583Z,37.45
2023-03-24T16:32:25.702Z,37.33
2023-03-24T16:35:12.318Z,37.33
2023-03-24T16:37:59.121Z,37.34
2023-03-24T16:40:50.979Z,37.36
2023-03-24T16:43:38.276Z,37.56
2023-03-24T16:46:28.206Z,37.33
2023-03-24T16:49:17.278Z,37.53
2023-03-24T16:52:04.649Z,37.62
2023-03-24T16:54:51.357Z,37.58
2023-03-24T16:57:38.468Z,37.57
2023-03-24T17:00:25.886Z,37.56
2023-03-24T17:03:14.222Z,37.49
2023-03-24T17:06:03.736Z,37.57
2023-03-24T17:08:51.172Z,37.58
2023-03-24T17:11:41.061Z,37.68
2023-03-24T17:14:31.032Z,37.66
2023-03-24T17:17:18.652Z,37.67
2023-03-24T17:20:06.357Z,37.68
2023-03-24T17:22:57.017Z,37.80
2023-03-24T17:25:44.044Z,37.83
2023-03-24T17:28:31.040Z,37.90
2023-03-24T17:31:18.060Z,37.99
2023-03-24T17:34:15.185Z,37.95
2023-03-24T17:37:08.464Z,38.08
2023-03-24T17:39:58.537Z,38.01
2023-03-24T17:42:46.843Z,38.03
2023-03-24T17:45:34.617Z,38.02
2023-03-24T17:48:21.629Z,37.73
2023-03-24T17:51:08.644Z,37.60
2023-03-24T17:53:55.560Z,37.52
2023-03-24T17:56:42.386Z,37.65
2023-03-24T17:59:29.632Z,37.56
2023-03-24T18:02:19.776Z,37.69
2023-03-24T18:05:08.428Z,37.75
2023-03-24T18:07:55.240Z,37.81
2023-03-24T18:10:42.110Z,37.81
2023-03-24T18:13:29.655Z,38.09
2023-03-24T18:16:21.860Z,38.18
2023-03-24T18:19:09.244Z,38.28
2023-03-24T18:21:55.941Z,38.40
2023-03-24T18:24:43.072Z,38.29
2023-03-24T18:27:30.699Z,38.46
2023-03-24T18:30:17.921Z,38.71
2023-03-24T18:33:04.977Z,38.78
2023-03-24T18:35:53.091Z,38.83
2023-03-24T18:38:40.096Z,38.78
2023-03-24T18:41:29.883Z,38.93
2023-03-24T18:44:17.107Z,39.04
2023-03-24T18:47:03.867Z,38.96
2023-03-24T18:49:50.621Z,39.05
2023-03-24T18:52:37.430Z,38.95
2023-03-24T18:55:26.798Z,38.83
2023-03-24T18:58:16.002Z,38.79
2023-03-24T19:01:09.197Z,38.91
2023-03-24T19:03:56.542Z,38.87
2023-03-24T19:06:44.489Z,38.97
2023-03-24T19:09:31.729Z,38.95
2023-03-24T19:12:18.833Z,38.90
2023-03-24T19:15:07.213Z,38.93
2023-03-24T19:17:54.995Z,38.78
2023-03-24T19:20:44.665Z,38.88
2023-03-24T19:23:31.421Z,38.83
2023-03-24T19:26:20.218Z,38.74
2023-03-24T19:29:07.278Z,38.77
2023-03-24T19:31:54.086Z,38.81
2023-03-24T19:34:41.210Z,38.74
2023-03-24T19:37:31.921Z,38.64
2023-03-24T19:40:19.023Z,38.60
2023-03-24T19:43:06.771Z,38.70
2023-03-24T19:45:55.150Z,38.65
2023-03-24T19:48:42.242Z,38.76
2023-03-24T19:51:29.027Z,38.64
2023-03-24T19:54:16.158Z,38.58
2023-03-24T19:57:03.711Z,38.58
2023-03-24T19:59:50.394Z,38.64
2023-03-24T20:02:38.511Z,38.56
2023-03-24T20:05:25.893Z,38.52
2023-03-24T20:08:12.489Z,38.63
2023-03-24T20:10:59.693Z,38.59
2023-03-24T20:13:46.911Z,38.55
2023-03-24T20:16:34.237Z,38.59
2023-03-24T20:19:21.109Z,38.46
2023-03-24T20:22:07.958Z,38.57
2023-03-24T20:24:54.968Z,38.65
2023-03-24T20:27:42.189Z,38.58
2023-03-24T20:30:31.259Z,38.62
2023-03-24T20:33:18.478Z,38.67
2023-03-24T20:36:06.121Z,38.56
2023-03-24T20:38:53.021Z,38.66
2023-03-24T20:41:39.687Z,38.62
2023-03-24T20:44:27.457Z,38.63
2023-03-24T20:47:14.678Z,38.61
2023-03-24T20:50:01.501Z,38.66
2023-03-24T20:52:48.908Z,38.62
2023-03-24T20:55:36.060Z,38.53
2023-03-24T20:58:23.349Z,38.43
2023-03-24T21:01:20.756Z,38.40
2023-03-24T21:04:09.629Z,38.48
2023-03-24T21:06:56.488Z,38.37
2023-03-24T21:09:43.607Z,38.25
2023-03-24T21:12:30.412Z,38.32
2023-03-24T21:15:17.224Z,38.19
2023-03-24T21:18:04.645Z,38.18
2023-03-24T21:20:56.081Z,38.20
2023-03-24T21:23:43.390Z,38.26
2023-03-24T21:26:30.616Z,38.14
2023-03-24T21:29:17.734Z,38.21
2023-03-24T21:32:04.543Z,38.08
2023-03-24T21:34:51.572Z,38.09
2023-03-24T21:37:41.239Z,37.96
2023-03-24T21:40:28.159Z,37.94
2023-03-24T21:43:15.294Z,37.96
2023-03-24T21:46:04.074Z,37.91
2023-03-24T21:48:52.760Z,37.79
2023-03-24T21:51:42.994Z,37.88
2023-03-24T21:54:30.805Z,37.86
2023-03-24T21:57:18.039Z,37.72
2023-03-24T22:00:15.082Z,37.70
2023-03-24T22:03:02.351Z,37.75
2023-03-24T22:05:49.505Z,37.76
2023-03-24T22:08:39.068Z,37.69
2023-03-24T22:11:26.345Z,37.82
2023-03-24T22:14:13.331Z,37.67
2023-03-24T22:17:00.413Z,37.57
2023-03-24T22:19:47.203Z,37.59
2023-03-24T22:22:34.287Z,37.65
2023-03-24T22:25:21.298Z,37.53
2023-03-24T22:28:08.112Z,37.50
2023-03-24T22:31:00.853Z,37.48
2023-03-24T22:33:48.114Z,37.43
2023-03-24T22:36:34.798Z,37.44
2023-03-24T22:39:21.807Z,37.43
2023-03-24T22:42:09.330Z,37.41
2023-03-24T22:44:56.765Z,37.35
2023-03-24T22:47:43.909Z,37.42
2023-03-24T22:50:31.199Z,37.32
2023-03-24T22:53:18.233Z,37.39
2023-03-24T22:56:06.349Z,37.43
2023-03-24T22:58:53.470Z,37.15
2023-03-24T23:01:40.703Z,37.23
2023-03-24T23:04:27.913Z,37.07
2023-03-24T23:07:14.733Z,37.13
2023-03-24T23:10:01.849Z,37.14
2023-03-24T23:12:52.040Z,37.16
2023-03-24T23:15:40.010Z,37.12
2023-03-24T23:18:26.993Z,37.04
2023-03-24T23:21:16.593Z,37.05
2023-03-24T23:24:03.998Z,37.02
2023-03-24T23:26:50.796Z,37.00
2023-03-24T23:29:41.710Z,36.83
2023-03-24T23:32:28.482Z,36.85
2023-03-24T23:35:15.644Z,36.78
2023-03-24T23:38:02.662Z,36.85
2023-03-24T23:40:49.473Z,36.76
2023-03-24T23:43:36.452Z,36.68
2023-03-24T23:46:24.643Z,36.74
2023-03-24T23:49:11.958Z,36.76
2023-03-24T23:51:58.877Z,36.77
2023-03-24T23:54:45.715Z,36.73
2023-03-24T23:57:32.993Z,36.73
